sensor_id;sensor_type;location;lat;lon;timestamp;temperature;humidity
7349;DHT22;13010;-33.424;-70.614;2023-03-18T00:01:01;19.20;99.90
7349;DHT22;13010;-33.424;-70.614;2023-03-18T00:03:52;19.30;99.90
7349;DHT22;13010;-33.424;-70.614;2023-03-18T00:06:41;18.70;99.90
7349;DHT22;13010;-33.424;-70.614;2023-03-18T00:09:30;18.40;99.90
7349;DHT22;13010;-33.424;-70.614;2023-03-18T00:12:19;19.40;99.90
7349;DHT22;13010;-33.424;-70.614;2023-03-18T00:15:11;18.70;99.90
7349;DHT22;13010;-33.424;-70.614;2023-03-18T00:18:01;19.30;99.90
7349;DHT22;13010;-33.424;-70.614;2023-03-18T00:20:50;18.30;99.90
7349;DHT22;13010;-33.424;-70.614;2023-03-18T00:23:40;19.00;99.90
7349;DHT22;13010;-33.424;-70.614;2023-03-18T00:26:29;19.10;99.90
7349;DHT22;13010;-33.424;-70.614;2023-03-18T00:29:18;19.40;99.90
7349;DHT22;13010;-33.424;-70.614;2023-03-18T00:32:09;18.30;99.90
7349;DHT22;13010;-33.424;-70.614;2023-03-18T00:34:58;18.70;99.90
7349;DHT22;13010;-33.424;-70.614;2023-03-18T00:37:51;18.50;99.90
7349;DHT22;13010;-33.424;-70.614;2023-03-18T00:40:40;18.40;99.90
7349;DHT22;13010;-33.424;-70.614;2023-03-18T00:43:39;17.80;99.90
7349;DHT22;13010;-33.424;-70.614;2023-03-18T00:46:38;17.50;99.90
7349;DHT22;13010;-33.424;-70.614;2023-03-18T00:49:30;19.40;99.90
7349;DHT22;13010;-33.424;-70.614;2023-03-18T00:52:19;18.00;99.90
7349;DHT22;13010;-33.424;-70.614;2023-03-18T00:55:09;17.90;99.90
7349;DHT22;13010;-33.424;-70.614;2023-03-18T00:57:58;17.80;99.90
7349;DHT22;13010;-33.424;-70.614;2023-03-18T01:00:48;17.60;99.90
7349;DHT22;13010;-33.424;-70.614;2023-03-18T01:03:38;16.90;99.90
7349;DHT22;13010;-33.424;-70.614;2023-03-18T01:06:30;17.40;99.90
7349;DHT22;13010;-33.424;-70.614;2023-03-18T01:09:20;17.30;99.90
7349;DHT22;13010;-33.424;-70.614;2023-03-18T01:12:09;17.20;99.90
7349;DHT22;13010;-33.424;-70.614;2023-03-18T01:15:00;17.00;99.90
7349;DHT22;13010;-33.424;-70.614;2023-03-18T01:17:50;18.20;99.90
7349;DHT22;13010;-33.424;-70.614;2023-03-18T01:20:41;17.30;99.90
7349;DHT22;13010;-33.424;-70.614;2023-03-18T01:23:33;16.80;99.90
7349;DHT22;13010;-33.424;-70.614;2023-03-18T01:26:22;16.80;99.90
7349;DHT22;13010;-33.424;-70.614;2023-03-18T01:29:11;16.20;99.90
7349;DHT22;13010;-33.424;-70.614;2023-03-18T01:32:01;16.10;99.90
7349;DHT22;13010;-33.424;-70.614;2023-03-18T01:34:49;16.10;99.90
7349;DHT22;13010;-33.424;-70.614;2023-03-18T01:37:38;16.50;99.90
7349;DHT22;13010;-33.424;-70.614;2023-03-18T01:40:31;17.20;99.90
7349;DHT22;13010;-33.424;-70.614;2023-03-18T01:43:22;16.50;99.90
7349;DHT22;13010;-33.424;-70.614;2023-03-18T01:46:32;16.50;99.90
7349;DHT22;13010;-33.424;-70.614;2023-03-18T01:49:23;15.80;99.90
7349;DHT22;13010;-33.424;-70.614;2023-03-18T01:52:16;15.50;99.90
7349;DHT22;13010;-33.424;-70.614;2023-03-18T01:55:08;15.90;99.90
7349;DHT22;13010;-33.424;-70.614;2023-03-18T01:58:02;15.90;99.90
7349;DHT22;13010;-33.424;-70.614;2023-03-18T02:00:56;16.60;99.90
7349;DHT22;13010;-33.424;-70.614;2023-03-18T02:03:49;15.70;99.90
7349;DHT22;13010;-33.424;-70.614;2023-03-18T02:06:39;15.30;99.90
7349;DHT22;13010;-33.424;-70.614;2023-03-18T02:09:29;15.30;99.90
7349;DHT22;13010;-33.424;-70.614;2023-03-18T02:12:25;15.10;99.90
7349;DHT22;13010;-33.424;-70.614;2023-03-18T02:15:18;15.10;99.90
7349;DHT22;13010;-33.424;-70.614;2023-03-18T02:18:10;15.00;99.90
7349;DHT22;13010;-33.424;-70.614;2023-03-18T02:21:12;15.30;99.90
7349;DHT22;13010;-33.424;-70.614;2023-03-18T02:24:08;15.20;99.90
7349;DHT22;13010;-33.424;-70.614;2023-03-18T02:27:02;15.10;99.90
7349;DHT22;13010;-33.424;-70.614;2023-03-18T02:29:58;14.80;99.90
7349;DHT22;13010;-33.424;-70.614;2023-03-18T02:32:50;14.90;99.90
7349;DHT22;13010;-33.424;-70.614;2023-03-18T02:35:41;15.00;99.90
7349;DHT22;13010;-33.424;-70.614;2023-03-18T02:38:32;15.10;99.90
7349;DHT22;13010;-33.424;-70.614;2023-03-18T02:41:23;15.10;99.90
7349;DHT22;13010;-33.424;-70.614;2023-03-18T02:44:14;14.60;99.90
7349;DHT22;13010;-33.424;-70.614;2023-03-18T02:47:10;14.80;99.90
7349;DHT22;13010;-33.424;-70.614;2023-03-18T02:50:00;14.40;99.90
7349;DHT22;13010;-33.424;-70.614;2023-03-18T02:52:49;15.30;99.90
7349;DHT22;13010;-33.424;-70.614;2023-03-18T02:55:39;15.40;99.90
7349;DHT22;13010;-33.424;-70.614;2023-03-18T02:58:30;14.60;99.90
7349;DHT22;13010;-33.424;-70.614;2023-03-18T03:01:19;14.80;99.90
7349;DHT22;13010;-33.424;-70.614;2023-03-18T03:04:11;14.90;99.90
7349;DHT22;13010;-33.424;-70.614;2023-03-18T03:07:00;14.80;99.90
7349;DHT22;13010;-33.424;-70.614;2023-03-18T03:09:51;14.70;99.90
7349;DHT22;13010;-33.424;-70.614;2023-03-18T03:12:41;15.00;99.90
7349;DHT22;13010;-33.424;-70.614;2023-03-18T03:15:31;14.60;99.90
7349;DHT22;13010;-33.424;-70.614;2023-03-18T03:18:20;14.50;99.90
7349;DHT22;13010;-33.424;-70.614;2023-03-18T03:21:11;14.50;99.90
7349;DHT22;13010;-33.424;-70.614;2023-03-18T03:24:03;14.50;99.90
7349;DHT22;13010;-33.424;-70.614;2023-03-18T03:26:53;14.20;99.90
7349;DHT22;13010;-33.424;-70.614;2023-03-18T03:29:42;14.20;99.90
7349;DHT22;13010;-33.424;-70.614;2023-03-18T03:32:31;14.00;99.90
7349;DHT22;13010;-33.424;-70.614;2023-03-18T03:35:21;13.90;99.90
7349;DHT22;13010;-33.424;-70.614;2023-03-18T03:38:12;14.00;99.90
7349;DHT22;13010;-33.424;-70.614;2023-03-18T03:41:01;13.80;99.90
7349;DHT22;13010;-33.424;-70.614;2023-03-18T03:43:54;13.80;99.90
7349;DHT22;13010;-33.424;-70.614;2023-03-18T03:46:43;13.90;99.90
7349;DHT22;13010;-33.424;-70.614;2023-03-18T03:49:33;13.70;99.90
7349;DHT22;13010;-33.424;-70.614;2023-03-18T03:52:22;13.80;99.90
7349;DHT22;13010;-33.424;-70.614;2023-03-18T03:55:15;13.60;99.90
7349;DHT22;13010;-33.424;-70.614;2023-03-18T03:58:06;13.80;99.90
7349;DHT22;13010;-33.424;-70.614;2023-03-18T04:00:54;13.60;99.90
7349;DHT22;13010;-33.424;-70.614;2023-03-18T04:03:43;13.60;99.90
7349;DHT22;13010;-33.424;-70.614;2023-03-18T04:06:32;13.40;99.90
7349;DHT22;13010;-33.424;-70.614;2023-03-18T04:09:22;13.40;99.90
7349;DHT22;13010;-33.424;-70.614;2023-03-18T04:12:15;13.20;99.90
7349;DHT22;13010;-33.424;-70.614;2023-03-18T04:15:06;13.20;99.90
7349;DHT22;13010;-33.424;-70.614;2023-03-18T04:17:55;13.00;99.90
7349;DHT22;13010;-33.424;-70.614;2023-03-18T04:20:44;13.20;99.90
7349;DHT22;13010;-33.424;-70.614;2023-03-18T04:23:32;13.70;99.90
7349;DHT22;13010;-33.424;-70.614;2023-03-18T04:26:22;13.20;99.90
7349;DHT22;13010;-33.424;-70.614;2023-03-18T04:29:13;13.30;99.90
7349;DHT22;13010;-33.424;-70.614;2023-03-18T04:32:02;13.30;99.90
7349;DHT22;13010;-33.424;-70.614;2023-03-18T04:34:51;13.20;99.90
7349;DHT22;13010;-33.424;-70.614;2023-03-18T04:37:40;13.30;99.90
7349;DHT22;13010;-33.424;-70.614;2023-03-18T04:40:29;13.30;99.90
7349;DHT22;13010;-33.424;-70.614;2023-03-18T04:43:18;13.30;99.90
7349;DHT22;13010;-33.424;-70.614;2023-03-18T04:46:09;13.50;99.90
7349;DHT22;13010;-33.424;-70.614;2023-03-18T04:48:58;13.20;99.90
7349;DHT22;13010;-33.424;-70.614;2023-03-18T04:51:47;13.30;99.90
7349;DHT22;13010;-33.424;-70.614;2023-03-18T04:54:36;13.10;99.90
7349;DHT22;13010;-33.424;-70.614;2023-03-18T04:57:24;13.00;99.90
7349;DHT22;13010;-33.424;-70.614;2023-03-18T05:00:15;13.10;99.90
7349;DHT22;13010;-33.424;-70.614;2023-03-18T05:03:08;13.10;99.90
7349;DHT22;13010;-33.424;-70.614;2023-03-18T05:05:57;13.20;99.90
7349;DHT22;13010;-33.424;-70.614;2023-03-18T05:08:46;13.20;99.90
7349;DHT22;13010;-33.424;-70.614;2023-03-18T05:11:35;13.10;99.90
7349;DHT22;13010;-33.424;-70.614;2023-03-18T05:14:24;13.00;99.90
7349;DHT22;13010;-33.424;-70.614;2023-03-18T05:17:14;13.00;99.90
7349;DHT22;13010;-33.424;-70.614;2023-03-18T05:20:05;12.90;99.90
7349;DHT22;13010;-33.424;-70.614;2023-03-18T05:22:54;12.90;99.90
7349;DHT22;13010;-33.424;-70.614;2023-03-18T05:25:46;12.80;99.90
7349;DHT22;13010;-33.424;-70.614;2023-03-18T05:28:36;12.80;99.90
7349;DHT22;13010;-33.424;-70.614;2023-03-18T05:31:25;12.60;99.90
7349;DHT22;13010;-33.424;-70.614;2023-03-18T05:34:14;12.60;99.90
7349;DHT22;13010;-33.424;-70.614;2023-03-18T05:37:05;12.50;99.90
7349;DHT22;13010;-33.424;-70.614;2023-03-18T05:39:54;12.30;99.90
7349;DHT22;13010;-33.424;-70.614;2023-03-18T05:42:43;12.30;99.90
7349;DHT22;13010;-33.424;-70.614;2023-03-18T05:45:32;12.20;99.90
7349;DHT22;13010;-33.424;-70.614;2023-03-18T05:48:21;12.10;99.90
7349;DHT22;13010;-33.424;-70.614;2023-03-18T05:51:12;12.00;99.90
7349;DHT22;13010;-33.424;-70.614;2023-03-18T05:54:02;12.20;99.90
7349;DHT22;13010;-33.424;-70.614;2023-03-18T05:56:52;12.10;99.90
7349;DHT22;13010;-33.424;-70.614;2023-03-18T05:59:41;12.20;99.90
7349;DHT22;13010;-33.424;-70.614;2023-03-18T06:02:30;12.20;99.90
7349;DHT22;13010;-33.424;-70.614;2023-03-18T06:05:19;12.10;99.90
7349;DHT22;13010;-33.424;-70.614;2023-03-18T06:08:08;12.00;99.90
7349;DHT22;13010;-33.424;-70.614;2023-03-18T06:10:59;11.90;99.90
7349;DHT22;13010;-33.424;-70.614;2023-03-18T06:13:49;12.10;99.90
7349;DHT22;13010;-33.424;-70.614;2023-03-18T06:16:38;11.90;99.90
7349;DHT22;13010;-33.424;-70.614;2023-03-18T06:19:27;11.80;99.90
7349;DHT22;13010;-33.424;-70.614;2023-03-18T06:22:17;11.80;99.90
7349;DHT22;13010;-33.424;-70.614;2023-03-18T06:25:06;11.90;99.90
7349;DHT22;13010;-33.424;-70.614;2023-03-18T06:27:58;11.60;99.90
7349;DHT22;13010;-33.424;-70.614;2023-03-18T06:30:47;11.80;99.90
7349;DHT22;13010;-33.424;-70.614;2023-03-18T06:33:37;12.00;99.90
7349;DHT22;13010;-33.424;-70.614;2023-03-18T06:36:27;11.60;99.90
7349;DHT22;13010;-33.424;-70.614;2023-03-18T06:39:18;11.90;99.90
7349;DHT22;13010;-33.424;-70.614;2023-03-18T06:42:07;11.60;99.90
7349;DHT22;13010;-33.424;-70.614;2023-03-18T06:45:00;11.90;99.90
7349;DHT22;13010;-33.424;-70.614;2023-03-18T06:47:49;11.80;99.90
7349;DHT22;13010;-33.424;-70.614;2023-03-18T06:50:38;11.80;99.90
7349;DHT22;13010;-33.424;-70.614;2023-03-18T06:53:28;11.90;99.90
7349;DHT22;13010;-33.424;-70.614;2023-03-18T06:56:16;11.90;99.90
7349;DHT22;13010;-33.424;-70.614;2023-03-18T06:59:06;12.00;99.90
7349;DHT22;13010;-33.424;-70.614;2023-03-18T07:01:58;11.80;99.90
7349;DHT22;13010;-33.424;-70.614;2023-03-18T07:04:47;11.80;99.90
7349;DHT22;13010;-33.424;-70.614;2023-03-18T07:07:36;11.90;99.90
7349;DHT22;13010;-33.424;-70.614;2023-03-18T07:10:26;11.80;99.90
7349;DHT22;13010;-33.424;-70.614;2023-03-18T07:13:16;11.70;99.90
7349;DHT22;13010;-33.424;-70.614;2023-03-18T07:16:05;11.80;99.90
7349;DHT22;13010;-33.424;-70.614;2023-03-18T07:18:56;11.70;99.90
7349;DHT22;13010;-33.424;-70.614;2023-03-18T07:21:46;11.70;99.90
7349;DHT22;13010;-33.424;-70.614;2023-03-18T07:24:35;11.80;99.90
7349;DHT22;13010;-33.424;-70.614;2023-03-18T07:27:24;11.60;99.90
7349;DHT22;13010;-33.424;-70.614;2023-03-18T07:30:14;11.60;99.90
7349;DHT22;13010;-33.424;-70.614;2023-03-18T07:33:03;11.80;99.90
7349;DHT22;13010;-33.424;-70.614;2023-03-18T07:35:55;11.60;99.90
7349;DHT22;13010;-33.424;-70.614;2023-03-18T07:38:45;11.70;99.90
7349;DHT22;13010;-33.424;-70.614;2023-03-18T07:41:35;11.50;99.90
7349;DHT22;13010;-33.424;-70.614;2023-03-18T07:44:26;11.80;99.90
7349;DHT22;13010;-33.424;-70.614;2023-03-18T07:47:15;11.80;99.90
7349;DHT22;13010;-33.424;-70.614;2023-03-18T07:50:06;11.80;99.90
7349;DHT22;13010;-33.424;-70.614;2023-03-18T07:52:57;11.60;99.90
7349;DHT22;13010;-33.424;-70.614;2023-03-18T07:55:46;11.60;99.90
7349;DHT22;13010;-33.424;-70.614;2023-03-18T07:58:35;11.40;99.90
7349;DHT22;13010;-33.424;-70.614;2023-03-18T08:01:24;11.70;99.90
7349;DHT22;13010;-33.424;-70.614;2023-03-18T08:04:14;11.50;99.90
7349;DHT22;13010;-33.424;-70.614;2023-03-18T08:07:03;11.50;99.90
7349;DHT22;13010;-33.424;-70.614;2023-03-18T08:09:54;11.50;99.90
7349;DHT22;13010;-33.424;-70.614;2023-03-18T08:12:43;11.60;99.90
7349;DHT22;13010;-33.424;-70.614;2023-03-18T08:15:32;11.40;99.90
7349;DHT22;13010;-33.424;-70.614;2023-03-18T08:18:21;11.60;99.90
7349;DHT22;13010;-33.424;-70.614;2023-03-18T08:21:11;11.40;99.90
7349;DHT22;13010;-33.424;-70.614;2023-03-18T08:24:00;11.40;99.90
7349;DHT22;13010;-33.424;-70.614;2023-03-18T08:26:52;11.50;99.90
7349;DHT22;13010;-33.424;-70.614;2023-03-18T08:29:41;11.80;99.90
7349;DHT22;13010;-33.424;-70.614;2023-03-18T08:32:30;11.60;99.90
7349;DHT22;13010;-33.424;-70.614;2023-03-18T08:35:18;11.60;99.90
7349;DHT22;13010;-33.424;-70.614;2023-03-18T08:38:07;11.50;99.90
7349;DHT22;13010;-33.424;-70.614;2023-03-18T08:40:56;11.30;99.90
7349;DHT22;13010;-33.424;-70.614;2023-03-18T08:43:47;11.30;99.90
7349;DHT22;13010;-33.424;-70.614;2023-03-18T08:46:37;11.10;99.90
7349;DHT22;13010;-33.424;-70.614;2023-03-18T08:49:26;11.00;99.90
7349;DHT22;13010;-33.424;-70.614;2023-03-18T08:52:15;10.80;99.90
7349;DHT22;13010;-33.424;-70.614;2023-03-18T08:55:04;10.80;99.90
7349;DHT22;13010;-33.424;-70.614;2023-03-18T08:57:54;10.80;99.90
7349;DHT22;13010;-33.424;-70.614;2023-03-18T09:00:46;10.80;99.90
7349;DHT22;13010;-33.424;-70.614;2023-03-18T09:03:36;10.60;99.90
7349;DHT22;13010;-33.424;-70.614;2023-03-18T09:06:27;10.60;99.90
7349;DHT22;13010;-33.424;-70.614;2023-03-18T09:09:15;11.10;99.90
7349;DHT22;13010;-33.424;-70.614;2023-03-18T09:12:05;11.10;99.90
7349;DHT22;13010;-33.424;-70.614;2023-03-18T09:14:55;10.70;99.90
7349;DHT22;13010;-33.424;-70.614;2023-03-18T09:17:46;10.80;99.90
7349;DHT22;13010;-33.424;-70.614;2023-03-18T09:20:35;10.90;99.90
7349;DHT22;13010;-33.424;-70.614;2023-03-18T09:23:24;10.80;99.90
7349;DHT22;13010;-33.424;-70.614;2023-03-18T09:26:13;11.10;99.90
7349;DHT22;13010;-33.424;-70.614;2023-03-18T09:29:02;10.80;99.90
7349;DHT22;13010;-33.424;-70.614;2023-03-18T09:31:51;10.90;99.90
7349;DHT22;13010;-33.424;-70.614;2023-03-18T09:34:42;11.00;99.90
7349;DHT22;13010;-33.424;-70.614;2023-03-18T09:37:31;10.80;99.90
7349;DHT22;13010;-33.424;-70.614;2023-03-18T09:40:26;10.90;99.90
7349;DHT22;13010;-33.424;-70.614;2023-03-18T09:43:27;10.60;99.90
7349;DHT22;13010;-33.424;-70.614;2023-03-18T09:46:27;10.50;99.90
7349;DHT22;13010;-33.424;-70.614;2023-03-18T09:49:31;10.50;99.90
7349;DHT22;13010;-33.424;-70.614;2023-03-18T09:52:28;10.50;99.90
7349;DHT22;13010;-33.424;-70.614;2023-03-18T09:55:23;10.50;99.90
7349;DHT22;13010;-33.424;-70.614;2023-03-18T09:58:22;10.60;99.90
7349;DHT22;13010;-33.424;-70.614;2023-03-18T10:01:13;10.80;99.90
7349;DHT22;13010;-33.424;-70.614;2023-03-18T10:04:05;10.80;99.90
7349;DHT22;13010;-33.424;-70.614;2023-03-18T10:06:59;10.80;99.90
7349;DHT22;13010;-33.424;-70.614;2023-03-18T10:09:54;10.80;99.90
7349;DHT22;13010;-33.424;-70.614;2023-03-18T10:12:47;10.80;99.90
7349;DHT22;13010;-33.424;-70.614;2023-03-18T10:15:40;10.80;99.90
7349;DHT22;13010;-33.424;-70.614;2023-03-18T10:18:31;10.50;99.90
7349;DHT22;13010;-33.424;-70.614;2023-03-18T10:21:30;10.40;99.90
7349;DHT22;13010;-33.424;-70.614;2023-03-18T10:24:30;10.40;99.90
7349;DHT22;13010;-33.424;-70.614;2023-03-18T10:27:30;10.30;99.90
7349;DHT22;13010;-33.424;-70.614;2023-03-18T10:30:47;10.30;99.90
7349;DHT22;13010;-33.424;-70.614;2023-03-18T10:33:45;10.30;99.90
7349;DHT22;13010;-33.424;-70.614;2023-03-18T10:36:37;10.30;99.90
7349;DHT22;13010;-33.424;-70.614;2023-03-18T10:39:29;10.70;99.90
7349;DHT22;13010;-33.424;-70.614;2023-03-18T10:42:27;10.80;99.90
7349;DHT22;13010;-33.424;-70.614;2023-03-18T10:45:22;10.80;99.90
7349;DHT22;13010;-33.424;-70.614;2023-03-18T10:48:16;10.70;99.90
7349;DHT22;13010;-33.424;-70.614;2023-03-18T10:51:11;10.80;99.90
7349;DHT22;13010;-33.424;-70.614;2023-03-18T10:54:07;10.40;99.90
7349;DHT22;13010;-33.424;-70.614;2023-03-18T10:56:58;10.80;99.90
7349;DHT22;13010;-33.424;-70.614;2023-03-18T10:59:49;11.00;99.90
7349;DHT22;13010;-33.424;-70.614;2023-03-18T11:02:39;11.00;99.90
7349;DHT22;13010;-33.424;-70.614;2023-03-18T11:05:29;11.20;99.90
7349;DHT22;13010;-33.424;-70.614;2023-03-18T11:08:33;11.10;99.90
7349;DHT22;13010;-33.424;-70.614;2023-03-18T11:11:26;11.40;99.90
7349;DHT22;13010;-33.424;-70.614;2023-03-18T11:14:20;11.60;99.90
7349;DHT22;13010;-33.424;-70.614;2023-03-18T11:17:21;11.70;99.90
7349;DHT22;13010;-33.424;-70.614;2023-03-18T11:20:20;11.70;99.90
7349;DHT22;13010;-33.424;-70.614;2023-03-18T11:23:15;11.90;99.90
7349;DHT22;13010;-33.424;-70.614;2023-03-18T11:26:08;12.10;99.90
7349;DHT22;13010;-33.424;-70.614;2023-03-18T11:28:58;12.00;99.90
7349;DHT22;13010;-33.424;-70.614;2023-03-18T11:31:52;12.20;99.90
7349;DHT22;13010;-33.424;-70.614;2023-03-18T11:34:54;12.70;99.90
7349;DHT22;13010;-33.424;-70.614;2023-03-18T11:37:47;12.80;99.90
7349;DHT22;13010;-33.424;-70.614;2023-03-18T11:40:39;20.40;99.90
7349;DHT22;13010;-33.424;-70.614;2023-03-18T11:43:28;21.30;99.90
7349;DHT22;13010;-33.424;-70.614;2023-03-18T11:46:17;24.80;99.90
7349;DHT22;13010;-33.424;-70.614;2023-03-18T11:49:09;27.80;99.90
7349;DHT22;13010;-33.424;-70.614;2023-03-18T11:52:11;28.90;99.90
7349;DHT22;13010;-33.424;-70.614;2023-03-18T11:55:15;30.00;99.90
7349;DHT22;13010;-33.424;-70.614;2023-03-18T11:58:30;30.20;99.90
7349;DHT22;13010;-33.424;-70.614;2023-03-18T12:01:25;29.90;99.90
7349;DHT22;13010;-33.424;-70.614;2023-03-18T12:04:31;31.10;99.90
7349;DHT22;13010;-33.424;-70.614;2023-03-18T12:07:52;32.00;99.90
7349;DHT22;13010;-33.424;-70.614;2023-03-18T12:10:46;33.30;99.90
7349;DHT22;13010;-33.424;-70.614;2023-03-18T12:13:46;34.30;99.90
7349;DHT22;13010;-33.424;-70.614;2023-03-18T12:16:48;34.40;99.90
7349;DHT22;13010;-33.424;-70.614;2023-03-18T12:20:09;34.90;99.90
7349;DHT22;13010;-33.424;-70.614;2023-03-18T12:23:13;35.90;97.70
7349;DHT22;13010;-33.424;-70.614;2023-03-18T12:26:08;37.40;94.80
7349;DHT22;13010;-33.424;-70.614;2023-03-18T12:29:34;37.40;74.50
7349;DHT22;13010;-33.424;-70.614;2023-03-18T12:32:28;37.60;63.00
7349;DHT22;13010;-33.424;-70.614;2023-03-18T12:35:38;39.20;60.50
7349;DHT22;13010;-33.424;-70.614;2023-03-18T12:42:02;41.00;42.10
7349;DHT22;13010;-33.424;-70.614;2023-03-18T12:45:01;39.50;39.90
7349;DHT22;13010;-33.424;-70.614;2023-03-18T12:47:56;41.00;37.30
7349;DHT22;13010;-33.424;-70.614;2023-03-18T12:50:50;41.30;34.20
7349;DHT22;13010;-33.424;-70.614;2023-03-18T12:53:47;41.90;29.10
7349;DHT22;13010;-33.424;-70.614;2023-03-18T12:56:41;43.30;26.00
7349;DHT22;13010;-33.424;-70.614;2023-03-18T12:59:35;43.80;24.40
7349;DHT22;13010;-33.424;-70.614;2023-03-18T13:02:40;44.20;23.40
7349;DHT22;13010;-33.424;-70.614;2023-03-18T13:05:39;44.70;19.10
7349;DHT22;13010;-33.424;-70.614;2023-03-18T13:08:51;44.30;18.10
7349;DHT22;13010;-33.424;-70.614;2023-03-18T13:12:00;45.20;20.10
7349;DHT22;13010;-33.424;-70.614;2023-03-18T13:14:57;45.60;17.60
7349;DHT22;13010;-33.424;-70.614;2023-03-18T13:17:50;46.90;16.30
7349;DHT22;13010;-33.424;-70.614;2023-03-18T13:20:42;45.40;10.80
7349;DHT22;13010;-33.424;-70.614;2023-03-18T13:27:02;46.80;13.50
7349;DHT22;13010;-33.424;-70.614;2023-03-18T13:30:00;47.20;13.40
7349;DHT22;13010;-33.424;-70.614;2023-03-18T13:36:29;48.70;10.50
7349;DHT22;13010;-33.424;-70.614;2023-03-18T13:39:43;47.80;8.60
7349;DHT22;13010;-33.424;-70.614;2023-03-18T13:42:37;49.10;7.50
7349;DHT22;13010;-33.424;-70.614;2023-03-18T13:45:29;50.70;3.20
7349;DHT22;13010;-33.424;-70.614;2023-03-18T13:48:23;51.10;5.10
7349;DHT22;13010;-33.424;-70.614;2023-03-18T13:51:18;51.20;6.50
7349;DHT22;13010;-33.424;-70.614;2023-03-18T13:54:13;49.60;4.20
7349;DHT22;13010;-33.424;-70.614;2023-03-18T13:57:33;50.90;1.90
7349;DHT22;13010;-33.424;-70.614;2023-03-18T14:00:31;50.80;4.70
7349;DHT22;13010;-33.424;-70.614;2023-03-18T14:03:21;52.10;5.30
7349;DHT22;13010;-33.424;-70.614;2023-03-18T14:06:24;51.00;4.00
7349;DHT22;13010;-33.424;-70.614;2023-03-18T14:09:34;51.30;1.50
7349;DHT22;13010;-33.424;-70.614;2023-03-18T14:12:38;50.30;3.80
7349;DHT22;13010;-33.424;-70.614;2023-03-18T14:15:40;52.00;1.80
7349;DHT22;13010;-33.424;-70.614;2023-03-18T14:18:33;52.50;2.10
7349;DHT22;13010;-33.424;-70.614;2023-03-18T14:21:24;51.50;3.40
7349;DHT22;13010;-33.424;-70.614;2023-03-18T14:24:22;52.70;1.70
7349;DHT22;13010;-33.424;-70.614;2023-03-18T14:27:16;51.20;1.00
7349;DHT22;13010;-33.424;-70.614;2023-03-18T14:30:38;53.10;1.00
7349;DHT22;13010;-33.424;-70.614;2023-03-18T14:33:34;53.40;1.00
7349;DHT22;13010;-33.424;-70.614;2023-03-18T14:39:34;52.00;1.00
7349;DHT22;13010;-33.424;-70.614;2023-03-18T14:42:41;52.90;1.00
7349;DHT22;13010;-33.424;-70.614;2023-03-18T14:45:32;53.20;1.00
7349;DHT22;13010;-33.424;-70.614;2023-03-18T14:48:26;53.20;1.00
7349;DHT22;13010;-33.424;-70.614;2023-03-18T14:51:20;49.70;1.00
7349;DHT22;13010;-33.424;-70.614;2023-03-18T14:54:18;51.30;1.00
7349;DHT22;13010;-33.424;-70.614;2023-03-18T14:57:09;51.30;1.00
7349;DHT22;13010;-33.424;-70.614;2023-03-18T14:59:59;51.60;1.00
7349;DHT22;13010;-33.424;-70.614;2023-03-18T15:02:52;51.30;1.00
7349;DHT22;13010;-33.424;-70.614;2023-03-18T15:05:45;54.10;1.00
7349;DHT22;13010;-33.424;-70.614;2023-03-18T15:08:37;52.10;1.00
7349;DHT22;13010;-33.424;-70.614;2023-03-18T15:11:26;53.00;1.00
7349;DHT22;13010;-33.424;-70.614;2023-03-18T15:14:19;52.90;1.00
7349;DHT22;13010;-33.424;-70.614;2023-03-18T15:17:13;55.00;1.00
7349;DHT22;13010;-33.424;-70.614;2023-03-18T15:20:03;52.70;1.00
7349;DHT22;13010;-33.424;-70.614;2023-03-18T15:22:52;53.90;1.00
7349;DHT22;13010;-33.424;-70.614;2023-03-18T15:25:43;53.80;1.00
7349;DHT22;13010;-33.424;-70.614;2023-03-18T15:28:32;52.50;1.00
7349;DHT22;13010;-33.424;-70.614;2023-03-18T15:31:29;54.70;1.00
7349;DHT22;13010;-33.424;-70.614;2023-03-18T15:34:21;55.00;1.00
7349;DHT22;13010;-33.424;-70.614;2023-03-18T15:37:34;54.40;1.00
7349;DHT22;13010;-33.424;-70.614;2023-03-18T15:40:30;54.90;1.00
7349;DHT22;13010;-33.424;-70.614;2023-03-18T15:43:32;54.90;1.00
7349;DHT22;13010;-33.424;-70.614;2023-03-18T15:46:26;54.00;1.00
7349;DHT22;13010;-33.424;-70.614;2023-03-18T15:49:16;55.10;1.00
7349;DHT22;13010;-33.424;-70.614;2023-03-18T15:52:08;54.70;1.00
7349;DHT22;13010;-33.424;-70.614;2023-03-18T15:54:58;54.60;1.00
7349;DHT22;13010;-33.424;-70.614;2023-03-18T15:57:47;54.90;1.00
7349;DHT22;13010;-33.424;-70.614;2023-03-18T16:00:37;52.70;1.00
7349;DHT22;13010;-33.424;-70.614;2023-03-18T16:03:28;52.10;1.00
7349;DHT22;13010;-33.424;-70.614;2023-03-18T16:06:18;51.70;1.00
7349;DHT22;13010;-33.424;-70.614;2023-03-18T16:09:16;51.90;1.00
7349;DHT22;13010;-33.424;-70.614;2023-03-18T16:12:09;51.80;1.00
7349;DHT22;13010;-33.424;-70.614;2023-03-18T16:15:02;53.30;1.00
7349;DHT22;13010;-33.424;-70.614;2023-03-18T16:17:54;53.50;1.00
7349;DHT22;13010;-33.424;-70.614;2023-03-18T16:20:43;51.80;1.00
7349;DHT22;13010;-33.424;-70.614;2023-03-18T16:23:32;51.80;1.00
7349;DHT22;13010;-33.424;-70.614;2023-03-18T16:26:22;52.40;1.00
7349;DHT22;13010;-33.424;-70.614;2023-03-18T16:29:15;52.80;1.00
7349;DHT22;13010;-33.424;-70.614;2023-03-18T16:32:08;52.50;1.00
7349;DHT22;13010;-33.424;-70.614;2023-03-18T16:35:01;53.00;1.00
7349;DHT22;13010;-33.424;-70.614;2023-03-18T16:37:51;53.20;1.00
7349;DHT22;13010;-33.424;-70.614;2023-03-18T16:40:40;52.70;1.00
7349;DHT22;13010;-33.424;-70.614;2023-03-18T16:43:30;51.80;1.00
7349;DHT22;13010;-33.424;-70.614;2023-03-18T16:46:19;51.50;1.00
7349;DHT22;13010;-33.424;-70.614;2023-03-18T16:49:13;51.40;1.00
7349;DHT22;13010;-33.424;-70.614;2023-03-18T16:52:04;50.80;1.00
7349;DHT22;13010;-33.424;-70.614;2023-03-18T16:54:53;50.60;1.00
7349;DHT22;13010;-33.424;-70.614;2023-03-18T16:57:46;47.60;1.00
7349;DHT22;13010;-33.424;-70.614;2023-03-18T17:00:35;45.10;1.10
7349;DHT22;13010;-33.424;-70.614;2023-03-18T17:03:25;41.90;2.50
7349;DHT22;13010;-33.424;-70.614;2023-03-18T17:06:14;36.40;9.40
7349;DHT22;13010;-33.424;-70.614;2023-03-18T17:09:05;36.00;10.00
7349;DHT22;13010;-33.424;-70.614;2023-03-18T17:11:58;32.80;19.70
7349;DHT22;13010;-33.424;-70.614;2023-03-18T17:14:50;31.60;26.20
7349;DHT22;13010;-33.424;-70.614;2023-03-18T17:17:40;31.90;30.30
7349;DHT22;13010;-33.424;-70.614;2023-03-18T17:20:29;31.70;36.70
7349;DHT22;13010;-33.424;-70.614;2023-03-18T17:23:20;31.80;38.10
7349;DHT22;13010;-33.424;-70.614;2023-03-18T17:26:12;31.60;38.20
7349;DHT22;13010;-33.424;-70.614;2023-03-18T17:29:01;32.30;37.40
7349;DHT22;13010;-33.424;-70.614;2023-03-18T17:31:54;32.70;35.90
7349;DHT22;13010;-33.424;-70.614;2023-03-18T17:34:44;33.90;34.70
7349;DHT22;13010;-33.424;-70.614;2023-03-18T17:37:34;36.50;26.80
7349;DHT22;13010;-33.424;-70.614;2023-03-18T17:40:25;36.50;26.00
7349;DHT22;13010;-33.424;-70.614;2023-03-18T17:43:25;38.40;22.70
7349;DHT22;13010;-33.424;-70.614;2023-03-18T17:46:15;41.10;17.30
7349;DHT22;13010;-33.424;-70.614;2023-03-18T17:49:10;42.70;14.90
7349;DHT22;13010;-33.424;-70.614;2023-03-18T17:51:59;41.50;12.70
7349;DHT22;13010;-33.424;-70.614;2023-03-18T17:54:48;41.00;14.30